Time;durP1;ratioP1;P1;durP2;ratioP2;P2;SDS_P1;SDS_P2;PMS_P1;PMS_P2;Temp;Humidity;BMP_temperature;BMP_pressure;BME280_temperature;BME280_humidity;BME280_pressure;Samples;Min_cycle;Max_cycle;Signal;HPM_P1;HPM_P2
2021/04/14 00:01:10;;;;;;;8.23;2.83;;;;;;;6.31;59.09;102848.13;6257979;28;20259;-53
2021/04/14 00:04:30;;;;;;;8.70;3.07;;;;;;;6.42;59.10;102851.16;6258184;28;20228;-55
2021/04/14 00:07:51;;;;;;;9.43;4.00;;;;;;;6.47;58.39;102849.63;6259084;28;20665;-51
2021/04/14 00:11:15;;;;;;;13.23;3.80;;;;;;;6.39;59.04;102848.44;6263451;28;20822;-54
2021/04/14 00:14:36;;;;;;;10.43;3.07;;;;;;;6.29;59.40;102836.81;6261591;28;20582;-55
2021/04/14 00:17:58;;;;;;;8.60;3.80;;;;;;;6.08;60.18;102840.28;6238508;28;20236;-53
2021/04/14 00:21:22;;;;;;;9.50;3.13;;;;;;;5.83;60.78;102843.50;6264583;28;20232;-51
2021/04/14 00:24:43;;;;;;;8.47;3.20;;;;;;;6.11;60.43;102842.13;6261570;28;20243;-53
2021/04/14 00:28:04;;;;;;;10.13;3.43;;;;;;;6.00;60.62;102831.31;6262852;28;20255;-54
2021/04/14 00:31:35;;;;;;;6.83;2.70;;;;;;;5.95;60.87;102838.00;6262243;28;20509;-53
2021/04/14 00:34:56;;;;;;;5.50;2.63;;;;;;;6.17;60.17;102832.03;6257642;28;20354;-54
2021/04/14 00:38:19;;;;;;;5.77;3.07;;;;;;;6.40;59.39;102832.97;6261708;28;20263;-52
2021/04/14 00:41:39;;;;;;;8.37;2.97;;;;;;;6.09;60.38;102830.84;6258819;28;20232;-54
2021/04/14 00:44:59;;;;;;;9.73;3.13;;;;;;;6.02;60.99;102834.84;6246635;28;20239;-53
2021/04/14 00:48:20;;;;;;;9.67;2.47;;;;;;;6.13;60.33;102835.31;6247641;28;20224;-54
2021/04/14 00:51:42;;;;;;;9.47;3.77;;;;;;;5.87;61.40;102839.34;6246958;28;20232;-53
2021/04/14 00:55:07;;;;;;;8.67;3.40;;;;;;;5.91;61.62;102843.81;6235092;28;20629;-54
2021/04/14 00:58:27;;;;;;;7.07;3.47;;;;;;;6.21;60.37;102846.84;6246083;28;20231;-53
2021/04/14 01:01:48;;;;;;;9.23;4.23;;;;;;;5.87;61.43;102850.59;6253583;28;20228;-53
2021/04/14 01:05:09;;;;;;;18.03;4.10;;;;;;;5.69;62.26;102844.63;6231314;28;20826;-51
2021/04/14 01:08:30;;;;;;;7.50;3.10;;;;;;;5.84;61.87;102845.28;6245166;28;20830;-52
2021/04/14 01:11:51;;;;;;;9.80;3.23;;;;;;;5.92;61.74;102843.91;6243038;28;20244;-56
2021/04/14 01:15:15;;;;;;;7.97;4.13;;;;;;;5.82;61.66;102846.03;6258928;28;20319;-55
2021/04/14 01:18:38;;;;;;;11.50;2.93;;;;;;;5.78;61.88;102851.88;6554581;22;20218;-55
2021/04/14 01:21:59;;;;;;;8.57;3.17;;;;;;;5.93;61.45;102849.94;6307234;28;20702;-53
2021/04/14 01:25:23;;;;;;;8.83;3.33;;;;;;;6.01;61.25;102848.63;6315011;28;20305;-55
2021/04/14 01:28:47;;;;;;;10.80;4.33;;;;;;;5.84;61.89;102852.16;6307851;28;20246;-54
2021/04/14 01:32:08;;;;;;;9.53;2.93;;;;;;;6.10;61.34;102848.97;6297146;28;20234;-54
2021/04/14 01:35:29;;;;;;;10.80;3.23;;;;;;;5.52;62.63;102854.22;6286124;28;20225;-51
2021/04/14 01:38:51;;;;;;;9.07;4.13;;;;;;;5.70;62.20;102855.03;6312714;28;20517;-50
2021/04/14 01:42:11;;;;;;;14.17;5.00;;;;;;;5.77;62.08;102843.25;6314525;28;20237;-51
2021/04/14 01:45:34;;;;;;;9.17;3.27;;;;;;;5.74;62.03;102850.88;6299970;28;20230;-53
2021/04/14 01:48:54;;;;;;;10.40;3.83;;;;;;;5.71;62.30;102843.84;6321121;28;20230;-53
2021/04/14 01:52:15;;;;;;;9.50;3.20;;;;;;;5.61;62.71;102848.56;6320679;28;20230;-54
2021/04/14 01:55:36;;;;;;;7.40;3.00;;;;;;;5.63;62.39;102842.66;6284377;28;20326;-51
2021/04/14 01:58:57;;;;;;;9.53;3.20;;;;;;;5.63;62.28;102844.34;6306363;28;20622;-50
2021/04/14 02:02:17;;;;;;;10.60;2.97;;;;;;;5.30;63.28;102848.09;6312540;28;20234;-52
2021/04/14 02:05:38;;;;;;;7.33;2.90;;;;;;;5.26;63.56;102848.75;6313198;28;20500;-52
2021/04/14 02:08:58;;;;;;;14.60;3.40;;;;;;;5.31;63.21;102842.13;6308949;28;20223;-54
2021/04/14 02:12:19;;;;;;;10.17;3.07;;;;;;;5.44;63.02;102845.25;6299786;28;20227;-52
2021/04/14 02:15:40;;;;;;;12.70;3.70;;;;;;;5.63;62.34;102837.47;6307657;28;20230;-54
2021/04/14 02:19:01;;;;;;;12.23;3.20;;;;;;;5.41;62.98;102842.50;6296826;28;20231;-51
2021/04/14 02:22:21;;;;;;;12.17;3.07;;;;;;;5.37;62.79;102841.50;6277684;28;20606;-49
2021/04/14 02:25:42;;;;;;;10.67;3.67;;;;;;;5.28;62.73;102830.75;6303239;28;20322;-53
2021/04/14 02:29:03;;;;;;;8.23;3.07;;;;;;;5.45;62.63;102834.09;6304109;28;20227;-53
2021/04/14 02:32:24;;;;;;;9.10;3.13;;;;;;;5.35;62.07;102829.31;6299193;28;20239;-55
2021/04/14 02:35:45;;;;;;;4.27;2.47;;;;;;;5.24;62.50;102834.91;6298559;28;20227;-53
2021/04/14 02:39:08;;;;;;;6.93;2.30;;;;;;;5.40;62.21;102836.47;6299635;28;20486;-55
2021/04/14 02:42:28;;;;;;;8.33;2.83;;;;;;;5.47;61.50;102822.13;6299319;28;20227;-49
2021/04/14 02:45:50;;;;;;;6.43;2.50;;;;;;;5.35;62.17;102826.72;6309746;28;20791;-53
2021/04/14 02:49:11;;;;;;;6.93;2.87;;;;;;;5.46;61.69;102825.50;6301262;28;20230;-52
2021/04/14 02:52:31;;;;;;;5.40;3.23;;;;;;;5.56;61.70;102822.50;6293745;28;20231;-51
2021/04/14 02:55:51;;;;;;;9.30;2.57;;;;;;;5.47;61.58;102825.59;6291406;28;20227;-53
2021/04/14 02:59:12;;;;;;;9.97;3.10;;;;;;;5.52;61.47;102824.09;6297207;28;20640;-51
2021/04/14 03:02:34;;;;;;;7.83;4.13;;;;;;;5.46;61.54;102816.06;6307593;28;20234;-55
2021/04/14 03:05:55;;;;;;;13.77;3.53;;;;;;;5.58;61.30;102822.59;6308897;28;20252;-52
2021/04/14 03:09:16;;;;;;;7.27;2.60;;;;;;;5.38;61.94;102817.41;6306581;28;20718;-53
2021/04/14 03:12:38;;;;;;;8.60;2.90;;;;;;;5.08;62.65;102816.97;6304788;28;20653;-51
2021/04/14 03:15:59;;;;;;;7.97;2.60;;;;;;;5.25;62.52;102815.09;6302163;28;20226;-55
2021/04/14 03:19:20;;;;;;;9.47;2.27;;;;;;;5.36;62.20;102808.72;6280526;28;20235;-53
2021/04/14 03:22:41;;;;;;;16.63;5.30;;;;;;;5.29;62.22;102817.91;6297435;28;20239;-55
2021/04/14 03:26:01;;;;;;;10.13;3.80;;;;;;;5.18;63.01;102819.13;6305671;28;20231;-51
2021/04/14 03:29:21;;;;;;;7.50;2.97;;;;;;;5.19;62.49;102809.66;6293431;28;20230;-50
2021/04/14 03:32:42;;;;;;;9.37;3.60;;;;;;;4.86;63.54;102808.19;6306668;28;20245;-55
2021/04/14 03:36:05;;;;;;;14.67;5.27;;;;;;;4.94;63.81;102808.56;6296777;28;20623;-52
2021/04/14 03:39:26;;;;;;;9.63;3.50;;;;;;;5.12;63.28;102816.28;6298400;28;20251;-54
2021/04/14 03:42:46;;;;;;;7.43;2.60;;;;;;;5.37;61.84;102809.59;6295639;28;20234;-52
2021/04/14 03:46:07;;;;;;;9.03;3.20;;;;;;;5.21;62.83;102815.78;6301000;28;20231;-52
2021/04/14 03:49:28;;;;;;;10.50;3.13;;;;;;;5.29;62.67;102817.00;6299518;28;20230;-53
2021/04/14 03:52:51;;;;;;;7.80;3.33;;;;;;;4.92;63.27;102818.84;6296860;28;20226;-53
2021/04/14 03:56:13;;;;;;;13.33;4.43;;;;;;;5.17;63.17;102819.94;6309957;28;20234;-54
2021/04/14 03:59:34;;;;;;;5.07;2.77;;;;;;;4.71;64.50;102825.53;6287334;28;20255;-52
2021/04/14 04:02:54;;;;;;;8.47;3.20;;;;;;;4.79;64.01;102818.16;6304100;28;20234;-51
2021/04/14 04:06:15;;;;;;;8.30;3.80;;;;;;;4.99;64.14;102819.09;6303482;28;20227;-52
2021/04/14 04:09:36;;;;;;;8.40;3.83;;;;;;;5.33;62.45;102819.81;6284019;28;20235;-53
2021/04/14 04:12:58;;;;;;;6.90;3.07;;;;;;;5.24;62.12;102824.56;6302726;28;20240;-55
2021/04/14 04:16:18;;;;;;;4.80;3.30;;;;;;;5.34;62.47;102831.03;6307419;28;20325;-52
2021/04/14 04:19:38;;;;;;;21.73;15.37;;;;;;;5.23;63.10;102827.94;6307234;28;20222;-50
2021/04/14 04:23:00;;;;;;;10.33;6.00;;;;;;;5.09;63.31;102823.88;6310427;28;20257;-52
2021/04/14 04:26:22;;;;;;;10.40;6.67;;;;;;;5.23;62.43;102820.19;6287435;28;20234;-54
2021/04/14 04:29:43;;;;;;;14.83;6.17;;;;;;;5.32;62.41;102828.38;6295736;28;20257;-51
2021/04/14 04:33:06;;;;;;;10.97;3.63;;;;;;;5.43;62.06;102823.69;6301391;28;20238;-51
2021/04/14 04:36:27;;;;;;;6.80;4.27;;;;;;;5.39;62.86;102834.72;6307413;28;20635;-51
2021/04/14 04:39:47;;;;;;;9.50;3.30;;;;;;;5.21;63.05;102837.34;6300565;28;20438;-48
2021/04/14 04:43:09;;;;;;;8.63;3.17;;;;;;;5.28;62.24;102835.94;6308881;28;20288;-53
2021/04/14 04:46:30;;;;;;;6.93;3.57;;;;;;;4.92;63.79;102842.06;6300501;28;20222;-53
2021/04/14 04:49:50;;;;;;;5.47;3.07;;;;;;;5.40;62.48;102831.28;6300970;28;22126;-51
2021/04/14 04:53:15;;;;;;;11.13;3.53;;;;;;;5.23;62.88;102843.44;6300647;28;20239;-53
2021/04/14 04:56:35;;;;;;;7.77;2.97;;;;;;;5.22;62.95;102840.81;6300175;28;20614;-53
2021/04/14 04:59:56;;;;;;;9.20;3.30;;;;;;;5.38;62.40;102844.97;6303344;28;20234;-53
2021/04/14 05:03:19;;;;;;;7.10;2.93;;;;;;;5.70;61.34;102842.09;6299491;28;20684;-54
2021/04/14 05:06:40;;;;;;;4.50;2.63;;;;;;;5.52;61.70;102846.47;6300462;28;20624;-50
2021/04/14 05:10:00;;;;;;;5.87;3.37;;;;;;;5.76;61.14;102844.06;6305355;28;20607;-50
2021/04/14 05:13:21;;;;;;;12.40;3.53;;;;;;;5.50;62.47;102853.25;6303672;28;20235;-53
2021/04/14 05:16:43;;;;;;;9.10;3.90;;;;;;;5.69;61.90;102850.66;6302500;28;20289;-51
2021/04/14 05:20:05;;;;;;;12.47;4.53;;;;;;;5.65;61.78;102859.09;6304779;28;20596;-53
2021/04/14 05:23:25;;;;;;;7.70;4.07;;;;;;;5.84;61.15;102862.50;6287257;28;20234;-53
2021/04/14 05:26:46;;;;;;;6.77;2.90;;;;;;;6.02;60.82;102870.19;6310095;28;20237;-53
2021/04/14 05:30:08;;;;;;;6.57;2.73;;;;;;;5.72;60.86;102862.88;6288498;28;20234;-53
2021/04/14 05:33:29;;;;;;;8.27;3.67;;;;;;;6.28;59.76;102868.69;6306366;28;20238;-54
2021/04/14 05:36:51;;;;;;;13.90;4.33;;;;;;;6.30;59.97;102867.03;6297552;28;20254;-54
2021/04/14 05:40:13;;;;;;;4.83;2.70;;;;;;;6.04;59.99;102866.84;6301629;28;20234;-54
2021/04/14 05:43:38;;;;;;;5.97;2.77;;;;;;;6.09;60.25;102864.47;6288274;28;20223;-50
2021/04/14 05:46:58;;;;;;;7.27;2.60;;;;;;;6.21;60.18;102871.84;6297460;28;20242;-54
2021/04/14 05:50:23;;;;;;;5.97;3.43;;;;;;;6.11;60.15;102886.97;6300186;28;20219;-52
2021/04/14 05:53:43;;;;;;;6.90;3.03;;;;;;;5.98;60.60;102879.53;6306003;28;20230;-55
2021/04/14 05:57:04;;;;;;;4.60;2.97;;;;;;;6.24;59.56;102893.56;6298747;28;20239;-56
2021/04/14 06:00:25;;;;;;;6.80;2.70;;;;;;;6.14;60.10;102882.75;6301392;28;20254;-56
2021/04/14 06:03:48;;;;;;;8.23;3.20;;;;;;;6.24;59.91;102887.50;6291204;28;20230;-56
2021/04/14 06:07:09;;;;;;;6.07;2.40;;;;;;;6.16;59.61;102894.06;6297048;28;20679;-51
2021/04/14 06:10:30;;;;;;;11.20;4.67;;;;;;;6.10;59.47;102890.38;6300368;28;20256;-53
2021/04/14 06:13:51;;;;;;;6.37;2.07;;;;;;;6.09;59.76;102887.75;6295282;28;20220;-56
2021/04/14 06:17:11;;;;;;;11.13;3.77;;;;;;;6.07;59.97;102891.97;6301078;28;20264;-59
2021/04/14 06:20:33;;;;;;;4.03;3.13;;;;;;;5.91;60.26;102890.38;6288761;28;20234;-54
2021/04/14 06:23:57;;;;;;;7.53;2.77;;;;;;;6.13;59.38;102896.50;6279363;28;20245;-54
2021/04/14 06:27:28;;;;;;;7.90;4.07;;;;;;;6.18;59.52;102897.59;6311642;28;20231;-54
2021/04/14 06:30:49;;;;;;;10.60;4.63;;;;;;;6.53;58.72;102895.59;6293389;28;20230;-52
2021/04/14 06:34:15;;;;;;;7.63;2.30;;;;;;;6.72;57.81;102892.91;6288910;28;20227;-50
2021/04/14 06:37:36;;;;;;;5.73;2.37;;;;;;;6.61;58.52;102895.09;6300342;28;20222;-52
2021/04/14 06:41:23;;;;;;;6.43;2.20;;;;;;;6.86;57.44;102902.13;6285450;28;20222;-55
2021/04/14 06:45:02;;;;;;;5.97;2.33;;;;;;;6.99;56.37;102898.28;6304007;28;20230;-57
2021/04/14 06:48:28;;;;;;;5.63;2.47;;;;;;;7.09;55.91;102889.16;6295884;28;20321;-52
2021/04/14 06:51:54;;;;;;;5.17;1.97;;;;;;;7.05;55.76;102897.66;6300771;28;20222;-54
2021/04/14 06:55:20;;;;;;;16.30;3.87;;;;;;;7.30;55.49;102884.78;6298166;27;20230;-56
2021/04/14 06:58:45;;;;;;;6.33;2.17;;;;;;;7.71;54.72;102881.06;6294585;28;20810;-54
2021/04/14 07:02:09;;;;;;;5.00;1.93;;;;;;;7.76;54.17;102889.91;6305791;28;20268;-54
2021/04/14 07:05:34;;;;;;;9.47;2.67;;;;;;;7.88;53.79;102891.22;6299504;28;20511;-53
2021/04/14 07:09:05;;;;;;;9.13;2.03;;;;;;;7.59;54.02;102887.59;6301545;28;20246;-56
2021/04/14 07:12:26;;;;;;;18.30;3.10;;;;;;;8.06;56.94;102880.63;6302489;28;20604;-53
2021/04/14 07:15:52;;;;;;;8.63;3.03;;;;;;;8.40;57.46;102892.13;6303905;28;20226;-51
2021/04/14 07:19:25;;;;;;;6.90;1.90;;;;;;;8.85;55.41;102881.47;6302596;28;20239;-52
2021/04/14 07:22:58;;;;;;;9.37;2.87;;;;;;;8.94;55.44;102882.59;6300178;28;20229;-53
2021/04/14 07:26:23;;;;;;;6.33;2.93;;;;;;;9.20;52.51;102871.25;6309200;28;20223;-53
2021/04/14 07:29:46;;;;;;;5.73;1.80;;;;;;;9.10;53.01;102873.53;6303253;28;20235;-57
2021/04/14 07:33:18;;;;;;;4.67;1.67;;;;;;;9.57;51.10;102866.22;6299211;28;20231;-51
2021/04/14 07:36:48;;;;;;;10.00;4.37;;;;;;;9.88;49.84;102873.13;6307516;28;20262;-51
2021/04/14 07:40:17;;;;;;;7.73;4.87;;;;;;;9.70;49.73;102867.44;6305907;28;20237;-52
2021/04/14 07:43:47;;;;;;;3.30;1.37;;;;;;;8.99;49.99;102860.22;6296782;28;20230;-52
2021/04/14 07:47:09;;;;;;;5.10;2.00;;;;;;;9.01;48.65;102868.94;6306294;28;20266;-52
2021/04/14 07:50:34;;;;;;;7.00;2.97;;;;;;;9.07;48.19;102861.31;6296266;28;20231;-52
2021/04/14 07:53:59;;;;;;;4.20;2.10;;;;;;;9.57;47.59;102856.69;6305975;28;20321;-55
2021/04/14 07:57:28;;;;;;;5.83;1.57;;;;;;;10.25;47.04;102850.66;6305366;28;20249;-51
2021/04/14 08:00:49;;;;;;;8.23;2.97;;;;;;;9.95;46.22;102856.84;6301893;28;20230;-49
2021/04/14 08:04:13;;;;;;;6.73;2.07;;;;;;;9.82;45.80;102855.63;6297045;28;20215;-52
2021/04/14 08:07:38;;;;;;;5.07;1.60;;;;;;;9.84;44.82;102850.47;6304942;28;20242;-51
2021/04/14 08:11:03;;;;;;;5.37;1.70;;;;;;;9.66;45.45;102851.75;6303597;28;20512;-54
2021/04/14 08:14:33;;;;;;;9.37;3.53;;;;;;;8.95;48.29;102866.16;6296374;28;20813;-51
2021/04/14 08:18:07;;;;;;;2.97;1.77;;;;;;;8.21;51.85;102885.41;6307672;28;20262;-55
2021/04/14 08:21:34;;;;;;;8.60;1.90;;;;;;;8.21;52.94;102868.97;6296925;28;20231;-55
2021/04/14 08:24:59;;;;;;;6.57;2.07;;;;;;;7.76;55.17;102867.44;6307059;28;20235;-54
2021/04/14 08:28:28;;;;;;;6.57;5.10;;;;;;;8.90;54.24;102867.72;6311178;28;20234;-51
2021/04/14 08:31:49;;;;;;;5.33;4.43;;;;;;;9.47;52.19;102867.69;6297899;28;20234;-57
2021/04/14 08:35:15;;;;;;;5.00;3.20;;;;;;;9.94;49.83;102864.59;6310004;28;20317;-54
2021/04/14 08:38:35;;;;;;;6.70;3.63;;;;;;;9.61;48.99;102857.66;6291386;28;20262;-55
2021/04/14 08:42:14;;;;;;;5.03;1.80;;;;;;;9.82;48.43;102859.97;6302300;28;20235;-53
2021/04/14 08:45:37;;;;;;;3.23;1.80;;;;;;;10.30;48.39;102862.09;6302829;28;20235;-56
2021/04/14 08:49:02;;;;;;;6.80;2.83;;;;;;;9.90;47.63;102861.03;6304656;28;20249;-54
2021/04/14 08:52:23;;;;;;;4.10;1.70;;;;;;;9.39;48.52;102854.47;6306139;28;20881;-53
2021/04/14 08:55:45;;;;;;;4.70;1.30;;;;;;;9.35;48.50;102863.03;6302617;28;20587;-53
2021/04/14 08:59:06;;;;;;;2.97;1.83;;;;;;;9.40;46.83;102860.53;6306248;28;20534;-53
2021/04/14 09:02:27;;;;;;;5.30;2.33;;;;;;;10.29;44.55;102856.81;6306615;28;20246;-54
2021/04/14 09:05:48;;;;;;;4.63;1.60;;;;;;;10.74;44.20;102857.06;6297264;28;20234;-58
2021/04/14 09:09:15;;;;;;;6.60;1.83;;;;;;;10.65;44.83;102854.25;6307000;28;20223;-51
2021/04/14 09:12:48;;;;;;;5.73;1.93;;;;;;;10.27;45.17;102848.97;6305732;28;20218;-56
2021/04/14 09:16:10;;;;;;;3.00;1.50;;;;;;;10.56;43.91;102852.28;6307494;28;20587;-56
2021/04/14 09:19:34;;;;;;;6.90;1.77;;;;;;;10.29;44.23;102852.47;6305937;28;20230;-57
2021/04/14 09:23:04;;;;;;;4.87;2.37;;;;;;;10.53;43.06;102849.63;6306800;28;20247;-53
2021/04/14 09:26:32;;;;;;;2.97;1.70;;;;;;;10.50;42.65;102853.88;6311222;28;20230;-56
2021/04/14 09:30:01;;;;;;;6.17;2.17;;;;;;;10.87;41.24;102857.34;6305192;28;20234;-52
2021/04/14 09:33:39;;;;;;;10.17;1.27;;;;;;;10.98;41.58;102848.03;6308943;28;20234;-51
2021/04/14 09:37:03;;;;;;;6.50;5.03;;;;;;;10.84;41.54;102852.94;6312751;28;20641;-54
2021/04/14 09:40:30;;;;;;;5.73;3.20;;;;;;;10.62;42.12;102844.66;6298912;28;20231;-56
2021/04/14 09:43:52;;;;;;;5.50;2.40;;;;;;;10.63;42.62;102845.53;6304256;28;20223;-55
2021/04/14 09:47:33;;;;;;;11.87;2.50;;;;;;;11.19;40.31;102843.28;6293143;28;20620;-55
2021/04/14 09:50:55;;;;;;;5.47;2.00;;;;;;;10.86;40.83;102845.13;6306435;28;20270;-56
2021/04/14 09:54:21;;;;;;;2.60;1.53;;;;;;;10.76;40.43;102846.66;6299329;28;20251;-54
2021/04/14 09:57:45;;;;;;;4.63;2.00;;;;;;;11.18;40.58;102838.88;6304937;28;20218;-55
2021/04/14 10:01:12;;;;;;;4.50;2.70;;;;;;;11.50;40.96;102836.06;6305463;28;20317;-56
2021/04/14 10:04:37;;;;;;;4.27;1.90;;;;;;;11.40;39.85;102827.19;6295594;28;20222;-56
2021/04/14 10:08:00;;;;;;;5.10;1.77;;;;;;;11.08;39.96;102836.06;6306082;28;20226;-54
2021/04/14 10:11:27;;;;;;;5.00;1.97;;;;;;;10.96;39.71;102839.31;6298946;28;20254;-56
2021/04/14 10:14:49;;;;;;;4.50;1.70;;;;;;;11.38;37.30;102822.75;6305880;28;20230;-55
2021/04/14 10:18:18;;;;;;;4.33;1.50;;;;;;;12.05;36.49;102817.06;6299223;28;20234;-52
2021/04/14 10:21:40;;;;;;;5.60;1.47;;;;;;;11.97;35.20;102822.16;6301359;28;20222;-55
2021/04/14 10:25:07;;;;;;;2.23;1.13;;;;;;;12.74;33.39;102808.53;6291962;28;20227;-53
2021/04/14 10:28:27;;;;;;;2.00;0.87;;;;;;;13.52;31.40;102800.75;6303468;28;20234;-55
2021/04/14 10:31:48;;;;;;;5.50;1.87;;;;;;;14.28;30.38;102799.66;6295140;28;20226;-53
2021/04/14 10:35:12;;;;;;;3.53;1.60;;;;;;;14.65;29.79;102794.69;6308234;28;20230;-53
2021/04/14 10:38:34;;;;;;;4.60;1.67;;;;;;;14.63;30.21;102795.53;6275789;28;20622;-55
2021/04/14 10:41:56;;;;;;;14.73;11.73;;;;;;;14.67;29.60;102785.06;6303307;28;20239;-55
2021/04/14 10:45:19;;;;;;;3.17;1.70;;;;;;;14.01;29.28;102791.59;6299720;28;20231;-53
2021/04/14 10:48:43;;;;;;;2.90;1.30;;;;;;;14.19;28.89;102783.91;6305134;28;20309;-55
2021/04/14 10:52:11;;;;;;;1.87;1.30;;;;;;;13.78;30.00;102784.41;6302261;28;20587;-55
2021/04/14 10:55:35;;;;;;;3.47;1.70;;;;;;;14.45;29.93;102786.69;6305137;28;20222;-56
2021/04/14 10:59:03;;;;;;;6.33;2.20;;;;;;;14.99;29.86;102768.63;6304592;28;20239;-55
2021/04/14 11:02:28;;;;;;;1.47;1.00;;;;;;;14.67;30.22;102786.81;6301722;28;20223;-55
2021/04/14 11:05:51;;;;;;;3.53;1.23;;;;;;;12.84;32.99;102779.91;6307501;28;20222;-52
2021/04/14 11:09:13;;;;;;;8.90;2.07;;;;;;;13.99;31.85;102781.97;6303135;28;23279;-50
2021/04/14 11:12:34;;;;;;;3.03;1.10;;;;;;;13.23;31.88;102774.25;6302326;28;20254;-53
2021/04/14 11:15:57;;;;;;;2.93;1.60;;;;;;;13.67;31.71;102773.00;6295740;28;20267;-56
2021/04/14 11:19:21;;;;;;;2.90;1.50;;;;;;;13.61;31.34;102788.63;6283721;28;20234;-54
2021/04/14 11:22:44;;;;;;;3.73;1.30;;;;;;;14.00;31.17;102775.00;6284124;28;21888;-54
2021/04/14 11:26:12;;;;;;;4.50;1.17;;;;;;;13.05;31.10;102776.66;6283146;28;20707;-55
2021/04/14 11:29:34;;;;;;;2.70;1.23;;;;;;;13.28;31.46;102779.53;6245170;28;20515;-52
2021/04/14 11:32:57;;;;;;;4.57;1.67;;;;;;;12.68;33.24;102787.53;6281663;28;20235;-51
2021/04/14 11:36:20;;;;;;;3.10;1.40;;;;;;;12.58;31.67;102780.41;6287659;28;21482;-54
2021/04/14 11:39:51;;;;;;;3.97;1.80;;;;;;;15.09;28.51;102770.38;6280718;28;20793;-53
2021/04/14 11:43:32;;;;;;;4.63;4.07;;;;;;;15.07;28.60;102772.13;6284306;28;20225;-51
2021/04/14 11:46:57;;;;;;;6.07;3.53;;;;;;;13.29;32.03;102784.78;6288268;28;20235;-56
2021/04/14 11:50:28;;;;;;;3.53;1.20;;;;;;;12.65;33.69;102777.03;6283841;28;20227;-55
2021/04/14 11:53:55;;;;;;;2.93;1.67;;;;;;;12.60;33.72;102781.28;6282859;28;20230;-57
2021/04/14 11:57:24;;;;;;;4.53;1.43;;;;;;;12.62;33.28;102782.22;6285839;28;20230;-57
2021/04/14 12:00:45;;;;;;;3.10;1.17;;;;;;;12.79;32.99;102785.03;6289362;28;20230;-54
2021/04/14 12:04:11;;;;;;;2.50;1.30;;;;;;;17.63;26.09;102766.41;6288633;28;20285;-57
2021/04/14 12:07:33;;;;;;;3.80;1.80;;;;;;;22.71;20.00;102760.75;6280253;28;20226;-56
2021/04/14 12:10:54;;;;;;;2.67;1.50;;;;;;;25.65;14.22;102747.72;6287584;28;20230;-56
2021/04/14 12:14:15;;;;;;;1.85;0.90;;;;;;;27.85;12.80;102742.78;6293165;28;20227;-51
2021/04/14 12:17:35;;;;;;;3.35;1.50;;;;;;;28.12;12.32;102741.44;6259947;28;20738;-54
2021/04/14 12:20:56;;;;;;;3.13;1.17;;;;;;;21.38;18.94;102755.38;6286512;28;22062;-51
2021/04/14 12:24:17;;;;;;;3.80;1.00;;;;;;;19.76;20.87;102775.38;6289308;28;20223;-55
2021/04/14 12:27:38;;;;;;;4.30;1.20;;;;;;;18.91;23.27;102773.06;6274706;28;20386;-52
2021/04/14 12:30:59;;;;;;;2.03;1.10;;;;;;;16.57;25.56;102764.31;6287809;28;20227;-56
2021/04/14 12:34:20;;;;;;;2.10;1.02;;;;;;;14.64;29.08;102771.97;6289555;28;20234;-55
2021/04/14 12:37:41;;;;;;;1.60;1.27;;;;;;;14.22;34.02;102783.03;6288928;28;20231;-52
2021/04/14 12:41:03;;;;;;;1.33;0.90;;;;;;;13.85;34.33;102773.13;6292185;28;20318;-52
2021/04/14 12:44:23;;;;;;;4.43;1.50;;;;;;;13.75;35.16;102773.94;6282889;28;20235;-56
2021/04/14 12:47:44;;;;;;;2.27;1.27;;;;;;;13.48;35.02;102764.94;6284187;28;20533;-57
2021/04/14 12:51:13;;;;;;;1.83;1.37;;;;;;;13.20;35.15;102766.34;6287547;28;20831;-56
2021/04/14 12:54:36;;;;;;;1.70;1.07;;;;;;;12.85;34.99;102774.66;6284682;28;20234;-57
2021/04/14 12:57:57;;;;;;;3.40;1.40;;;;;;;12.96;32.84;102767.81;6274887;28;20234;-55
2021/04/14 13:01:19;;;;;;;4.73;4.23;;;;;;;12.66;32.71;102763.09;6289805;28;20231;-56
2021/04/14 13:04:45;;;;;;;3.77;3.30;;;;;;;12.91;31.60;102766.00;6275430;28;20238;-56
2021/04/14 13:08:09;;;;;;;2.30;1.40;;;;;;;13.07;31.49;102761.88;6290458;28;20235;-56
2021/04/14 13:11:32;;;;;;;3.30;1.60;;;;;;;12.92;30.63;102759.94;6289152;28;20317;-54
2021/04/14 13:14:55;;;;;;;3.73;1.30;;;;;;;13.14;30.64;102758.44;6282918;28;20698;-53
2021/04/14 13:18:16;;;;;;;3.53;1.10;;;;;;;12.83;31.56;102759.81;6285520;28;20243;-56
2021/04/14 13:21:45;;;;;;;4.73;1.77;;;;;;;13.75;31.09;102760.84;6284854;28;20227;-51
2021/04/14 13:25:11;;;;;;;5.93;1.70;;;;;;;17.08;27.51;102752.72;6289058;28;20554;-56
2021/04/14 13:28:37;;;;;;;2.87;1.40;;;;;;;19.66;23.50;102741.13;6282774;28;20743;-54
2021/04/14 13:32:04;;;;;;;3.70;1.13;;;;;;;20.97;21.82;102741.28;6291724;28;20234;-52
2021/04/14 13:35:29;;;;;;;2.37;1.20;;;;;;;21.81;21.30;102746.41;6290432;28;20222;-55
2021/04/14 13:38:57;;;;;;;4.17;1.63;;;;;;;24.80;18.93;102728.91;6284768;28;20226;-57
2021/04/14 13:42:22;;;;;;;2.28;0.98;;;;;;;22.28;20.49;102742.53;6287948;28;20235;-55
2021/04/14 13:45:51;;;;;;;3.45;1.00;;;;;;;21.31;21.74;102737.88;6259315;28;20223;-53
2021/04/14 13:49:21;;;;;;;2.70;1.23;;;;;;;22.78;20.59;102737.56;6274337;28;20313;-57
2021/04/14 13:52:41;;;;;;;2.72;1.10;;;;;;;20.83;22.81;102743.38;6281697;28;20238;-55
2021/04/14 13:56:07;;;;;;;3.80;1.10;;;;;;;21.56;22.03;102748.78;6285989;28;20611;-53
2021/04/14 13:59:41;;;;;;;2.75;1.08;;;;;;;18.32;25.19;102741.19;6290211;28;20230;-54
2021/04/14 14:03:02;;;;;;;2.20;1.10;;;;;;;16.68;28.14;102744.97;6289319;28;20262;-57
2021/04/14 14:06:35;;;;;;;2.90;1.60;;;;;;;15.45;29.85;102747.75;6283400;28;20247;-56
2021/04/14 14:09:59;;;;;;;3.97;3.50;;;;;;;15.06;30.78;102743.25;6296416;28;20225;-54
2021/04/14 14:13:23;;;;;;;5.03;3.63;;;;;;;14.51;30.34;102741.28;6307570;28;20226;-53
2021/04/14 14:16:48;;;;;;;4.80;2.87;;;;;;;13.98;31.13;102748.81;6308195;27;20270;-53
2021/04/14 14:20:12;;;;;;;3.60;2.77;;;;;;;13.90;31.04;102740.03;6305569;28;20226;-53
2021/04/14 14:23:38;;;;;;;3.23;1.70;;;;;;;13.79;31.15;102731.19;6302308;28;20237;-51
2021/04/14 14:27:00;;;;;;;4.23;2.33;;;;;;;13.48;31.91;102733.53;6303290;28;20231;-54
2021/04/14 14:30:21;;;;;;;4.43;2.20;;;;;;;13.32;31.39;102734.28;6304872;28;20748;-53
2021/04/14 14:33:42;;;;;;;2.50;2.13;;;;;;;13.26;31.68;102736.75;6321479;28;20222;-56
2021/04/14 14:37:10;;;;;;;2.73;2.00;;;;;;;13.28;32.21;102737.66;6313702;28;20222;-54
2021/04/14 14:40:35;;;;;;;2.93;1.70;;;;;;;12.92;30.92;102731.19;6308834;28;20238;-54
2021/04/14 14:44:02;;;;;;;4.23;1.87;;;;;;;13.25;30.63;102733.28;6312591;28;20227;-53
2021/04/14 14:47:24;;;;;;;3.70;2.07;;;;;;;12.56;31.52;102740.28;6315524;28;20227;-53
2021/04/14 14:50:45;;;;;;;2.70;1.70;;;;;;;11.97;33.62;102743.81;6319701;28;20309;-55
2021/04/14 14:54:06;;;;;;;2.87;1.77;;;;;;;11.75;34.06;102742.56;6312959;28;20227;-52
2021/04/14 14:57:31;;;;;;;3.73;1.60;;;;;;;12.20;34.75;102739.81;6311452;28;20234;-53
2021/04/14 15:00:59;;;;;;;4.00;1.20;;;;;;;11.10;38.12;102737.91;6304561;28;20238;-53
2021/04/14 15:04:20;;;;;;;3.63;1.53;;;;;;;11.59;37.27;102742.28;6315338;27;20238;-53
2021/04/14 15:07:41;;;;;;;2.13;1.20;;;;;;;11.38;38.07;102736.66;6323493;28;20223;-54
2021/04/14 15:11:02;;;;;;;2.03;1.63;;;;;;;10.59;39.86;102742.06;6311960;28;20230;-50
2021/04/14 15:14:23;;;;;;;2.90;1.40;;;;;;;11.04;39.33;102730.84;6310638;28;20234;-52
2021/04/14 15:17:44;;;;;;;3.20;1.30;;;;;;;11.04;39.39;102741.25;6305421;28;20230;-54
2021/04/14 15:21:07;;;;;;;1.93;1.33;;;;;;;11.20;38.89;102745.91;6306814;28;20226;-54
2021/04/14 15:24:27;;;;;;;1.77;0.97;;;;;;;10.37;40.97;102741.59;6301465;28;20226;-55
2021/04/14 15:27:47;;;;;;;6.33;1.80;;;;;;;11.45;39.36;102732.47;6304124;28;20230;-55
2021/04/14 15:31:10;;;;;;;4.87;2.70;;;;;;;10.71;40.44;102721.47;6299519;28;20254;-51
2021/04/14 15:34:31;;;;;;;5.03;1.97;;;;;;;10.30;40.79;102734.50;6308462;28;20605;-56
2021/04/14 15:37:54;;;;;;;4.03;1.77;;;;;;;10.29;41.07;102737.03;6310751;28;20537;-52
2021/04/14 15:41:16;;;;;;;2.90;1.37;;;;;;;11.76;38.22;102726.03;6307214;28;20317;-55
2021/04/14 15:44:36;;;;;;;3.77;1.83;;;;;;;11.09;39.89;102729.19;6304743;28;20305;-53
2021/04/14 15:47:58;;;;;;;3.37;1.60;;;;;;;11.57;40.19;102725.72;6302786;28;20671;-53
2021/04/14 15:51:21;;;;;;;3.30;1.53;;;;;;;12.19;40.34;102726.72;6309101;28;20607;-52